createdAt,value
2022-12-03T00:02:00.810Z,3.10
2022-12-03T00:04:27.404Z,3.08
2022-12-03T00:06:53.951Z,3.05
2022-12-03T00:09:20.581Z,3.05
2022-12-03T00:11:48.450Z,3.07
2022-12-03T00:14:14.965Z,3.10
2022-12-03T00:16:41.442Z,3.11
2022-12-03T00:19:08.061Z,3.06
2022-12-03T00:21:34.733Z,3.00
2022-12-03T00:24:01.336Z,2.97
2022-12-03T00:26:27.837Z,3.00
2022-12-03T00:28:55.805Z,3.01
2022-12-03T00:31:23.531Z,3.07
2022-12-03T00:33:50.223Z,3.13
2022-12-03T00:36:16.755Z,3.19
2022-12-03T00:38:43.425Z,3.23
2022-12-03T00:41:09.949Z,3.26
2022-12-03T00:43:36.495Z,3.28
2022-12-03T00:46:04.488Z,3.28
2022-12-03T00:48:31.045Z,3.28
2022-12-03T00:50:57.644Z,3.32
2022-12-03T00:53:24.161Z,3.35
2022-12-03T00:55:51.756Z,3.33
2022-12-03T00:58:18.283Z,3.31
2022-12-03T01:00:44.788Z,3.29
2022-12-03T01:03:12.716Z,3.23
2022-12-03T01:05:39.203Z,3.19
2022-12-03T01:10:46.201Z,3.18
2022-12-03T01:13:12.660Z,3.19
2022-12-03T01:15:39.166Z,3.17
2022-12-03T01:18:05.723Z,3.15
2022-12-03T01:20:33.762Z,3.16
2022-12-03T01:23:00.253Z,3.17
2022-12-03T01:25:26.782Z,3.19
2022-12-03T01:27:53.424Z,3.20
2022-12-03T01:30:20.146Z,3.18
2022-12-03T01:32:46.669Z,3.19
2022-12-03T01:35:13.167Z,3.19
2022-12-03T01:37:40.978Z,3.21
2022-12-03T01:40:07.994Z,3.21
2022-12-03T01:42:36.779Z,3.22
2022-12-03T01:45:04.104Z,3.20
2022-12-03T01:47:32.134Z,3.17
2022-12-03T01:50:01.622Z,3.12
2022-12-03T01:52:30.307Z,3.09
2022-12-03T01:54:59.386Z,3.05
2022-12-03T01:57:28.004Z,3.02
2022-12-03T01:59:55.684Z,3.01
2022-12-03T02:02:23.863Z,2.97
2022-12-03T02:04:53.001Z,2.93
2022-12-03T02:07:21.268Z,2.94
2022-12-03T02:09:47.942Z,2.95
2022-12-03T02:12:18.061Z,2.94
2022-12-03T02:14:44.751Z,2.90
2022-12-03T02:17:11.388Z,2.88
2022-12-03T02:19:38.062Z,2.90
2022-12-03T02:22:07.995Z,2.93
2022-12-03T02:24:38.547Z,2.94
2022-12-03T02:27:06.419Z,2.95
2022-12-03T02:29:32.900Z,2.95
2022-12-03T02:31:59.531Z,2.93
2022-12-03T02:34:33.133Z,2.94
2022-12-03T02:36:59.738Z,2.94
2022-12-03T02:39:26.389Z,2.94
2022-12-03T02:42:11.696Z,2.94
2022-12-03T02:44:39.725Z,2.89
2022-12-03T02:47:06.407Z,2.85
2022-12-03T02:49:33.024Z,2.86
2022-12-03T02:51:59.622Z,2.84
2022-12-03T02:54:26.150Z,2.82
2022-12-03T02:56:52.674Z,2.82
2022-12-03T02:59:19.216Z,2.84
2022-12-03T03:01:47.540Z,2.88
2022-12-03T03:04:14.136Z,2.92
2022-12-03T03:06:40.645Z,2.94
2022-12-03T03:09:07.157Z,3.02
2022-12-03T03:11:33.722Z,3.04
2022-12-03T03:14:00.980Z,3.09
2022-12-03T03:16:27.564Z,3.08
2022-12-03T03:18:55.498Z,3.10
2022-12-03T03:21:21.960Z,3.13
2022-12-03T03:23:48.504Z,3.13
2022-12-03T03:26:16.471Z,3.14
2022-12-03T03:28:44.212Z,3.16
2022-12-03T03:31:12.595Z,3.15
2022-12-03T03:33:40.774Z,3.16
2022-12-03T03:36:09.337Z,3.15
2022-12-03T03:38:36.739Z,3.13
2022-12-03T03:41:05.867Z,3.13
2022-12-03T03:43:34.800Z,3.13
2022-12-03T03:46:01.887Z,3.13
2022-12-03T03:48:28.560Z,3.10
2022-12-03T03:50:55.791Z,3.11
2022-12-03T03:53:24.407Z,3.11
2022-12-03T03:55:51.197Z,3.13
2022-12-03T03:58:17.790Z,3.16
2022-12-03T04:00:45.150Z,3.19
2022-12-03T04:03:11.676Z,3.23
2022-12-03T04:05:38.409Z,3.25
2022-12-03T04:08:05.056Z,3.26
2022-12-03T04:10:51.380Z,3.25
2022-12-03T04:13:17.841Z,3.24
2022-12-03T04:15:44.492Z,3.20
2022-12-03T04:18:29.576Z,3.13
2022-12-03T04:21:16.039Z,3.07
2022-12-03T04:23:42.666Z,3.07
2022-12-03T04:26:28.960Z,3.05
2022-12-03T04:28:55.415Z,3.03
2022-12-03T04:31:40.779Z,3.04
2022-12-03T04:34:25.818Z,3.04
2022-12-03T04:36:52.396Z,3.03
2022-12-03T04:39:19.093Z,3.04
2022-12-03T04:41:46.976Z,3.08
2022-12-03T04:44:32.183Z,3.07
2022-12-03T04:46:58.897Z,3.08
2022-12-03T04:49:25.442Z,3.09
2022-12-03T04:51:52.107Z,3.08
2022-12-03T04:54:18.835Z,3.12
2022-12-03T04:56:47.056Z,3.14
2022-12-03T04:59:16.458Z,3.16
2022-12-03T05:01:43.315Z,3.16
2022-12-03T05:04:10.275Z,3.20
2022-12-03T05:06:36.763Z,3.22
2022-12-03T05:09:03.409Z,3.24
2022-12-03T05:11:30.077Z,3.22
2022-12-03T05:13:57.933Z,3.19
2022-12-03T05:16:24.547Z,3.16
2022-12-03T05:18:51.029Z,3.13
2022-12-03T05:21:17.508Z,3.14
2022-12-03T05:23:44.141Z,3.15
2022-12-03T05:26:10.934Z,3.11
2022-12-03T05:28:37.432Z,3.10
2022-12-03T05:31:05.825Z,3.06
2022-12-03T05:33:32.741Z,3.04
2022-12-03T05:35:59.202Z,3.01
2022-12-03T05:38:25.694Z,2.98
2022-12-03T05:40:52.191Z,2.99
2022-12-03T05:43:18.661Z,2.97
2022-12-03T05:45:45.359Z,3.00
2022-12-03T05:48:15.057Z,3.03
2022-12-03T05:50:45.448Z,3.05
2022-12-03T05:53:16.355Z,3.06
2022-12-03T05:55:42.960Z,3.07
2022-12-03T05:58:09.642Z,3.07
2022-12-03T06:00:42.396Z,3.05
2022-12-03T06:03:10.059Z,3.04
2022-12-03T06:05:38.342Z,3.02
2022-12-03T06:08:05.065Z,3.00
2022-12-03T06:10:31.692Z,2.97
2022-12-03T06:12:58.305Z,2.97
2022-12-03T06:15:24.967Z,2.95
2022-12-03T06:17:51.529Z,2.94
2022-12-03T06:20:19.948Z,2.88
2022-12-03T06:22:48.119Z,2.83
2022-12-03T06:25:14.835Z,2.79
2022-12-03T06:27:41.344Z,2.78
2022-12-03T06:30:09.018Z,2.77
2022-12-03T06:32:35.916Z,2.77
2022-12-03T06:35:02.424Z,2.75
2022-12-03T06:37:28.979Z,2.76
2022-12-03T06:39:57.040Z,2.77
2022-12-03T06:42:23.723Z,2.78
2022-12-03T06:44:50.257Z,2.78
2022-12-03T06:47:16.947Z,2.74
2022-12-03T06:49:43.540Z,2.72
2022-12-03T06:52:10.228Z,2.69
2022-12-03T06:54:36.886Z,2.69
2022-12-03T06:57:04.856Z,2.71
2022-12-03T06:59:34.727Z,2.77
2022-12-03T07:02:01.313Z,2.77
2022-12-03T07:04:28.419Z,2.79
2022-12-03T07:06:55.153Z,2.82
2022-12-03T07:09:21.760Z,2.84
2022-12-03T07:11:48.248Z,2.86
2022-12-03T07:14:16.127Z,2.80
2022-12-03T07:16:43.779Z,2.78
2022-12-03T07:19:10.843Z,2.75
2022-12-03T07:21:37.616Z,2.76
2022-12-03T07:24:04.167Z,2.79
2022-12-03T07:26:30.823Z,2.78
2022-12-03T07:28:57.358Z,2.75
2022-12-03T07:31:25.717Z,2.74
2022-12-03T07:33:52.403Z,2.77
2022-12-03T07:36:18.892Z,2.81
2022-12-03T07:38:45.364Z,2.83
2022-12-03T07:41:11.890Z,2.86
2022-12-03T07:43:38.427Z,2.91
2022-12-03T07:46:04.996Z,2.96
2022-12-03T07:48:32.917Z,2.95
2022-12-03T07:50:59.469Z,2.88
2022-12-03T07:53:25.960Z,2.81
2022-12-03T07:55:52.504Z,2.78
2022-12-03T07:58:19.062Z,2.75
2022-12-03T08:00:45.551Z,2.72
2022-12-03T08:03:12.234Z,2.66
2022-12-03T08:05:40.215Z,2.62
2022-12-03T08:08:06.826Z,2.57
2022-12-03T08:10:33.523Z,2.53
2022-12-03T08:13:00.057Z,2.51
2022-12-03T08:15:29.334Z,2.47
2022-12-03T08:18:00.326Z,2.47
2022-12-03T08:20:29.043Z,2.50
2022-12-03T08:22:57.389Z,2.48
2022-12-03T08:25:25.227Z,2.41
2022-12-03T08:27:53.683Z,2.34
2022-12-03T08:30:20.508Z,2.30
2022-12-03T08:32:47.314Z,2.30
2022-12-03T08:35:21.937Z,2.33
2022-12-03T08:37:50.005Z,2.35
2022-12-03T08:40:22.420Z,2.31
2022-12-03T08:42:49.051Z,2.28
2022-12-03T08:45:40.856Z,2.28
2022-12-03T08:48:16.140Z,2.29
2022-12-03T08:50:42.671Z,2.30
2022-12-03T08:53:19.660Z,2.29
2022-12-03T08:55:48.510Z,2.25
2022-12-03T08:58:21.577Z,2.20
2022-12-03T09:00:48.210Z,2.20
2022-12-03T09:03:16.425Z,2.20
2022-12-03T09:05:42.903Z,2.23
2022-12-03T09:08:09.471Z,2.28
2022-12-03T09:10:35.994Z,2.32
2022-12-03T09:13:03.873Z,2.35
2022-12-03T09:15:32.436Z,2.36
2022-12-03T09:17:58.908Z,2.37
2022-12-03T09:20:25.387Z,2.37
2022-12-03T09:22:51.826Z,2.41
2022-12-03T09:25:18.286Z,2.47
2022-12-03T09:27:44.748Z,2.50
2022-12-03T09:30:12.999Z,2.51
2022-12-03T09:32:39.477Z,2.55
2022-12-03T09:35:06.555Z,2.59
2022-12-03T09:37:32.998Z,2.61
2022-12-03T09:39:59.703Z,2.62
2022-12-03T09:42:26.230Z,2.62
2022-12-03T09:44:53.408Z,2.68
2022-12-03T09:47:21.484Z,2.72
2022-12-03T09:49:48.051Z,2.70
2022-12-03T09:52:22.377Z,2.73
2022-12-03T09:54:49.114Z,2.81
2022-12-03T09:57:16.785Z,2.86
2022-12-03T09:59:43.319Z,2.86
2022-12-03T10:02:16.981Z,2.85
2022-12-03T10:04:44.950Z,2.93
2022-12-03T10:07:11.637Z,2.96
2022-12-03T10:09:38.189Z,2.95
2022-12-03T10:12:05.049Z,2.95
2022-12-03T10:14:31.897Z,2.95
2022-12-03T10:16:59.309Z,2.95
2022-12-03T10:19:27.437Z,2.97
2022-12-03T10:21:55.743Z,3.00
2022-12-03T10:24:25.673Z,3.05
2022-12-03T10:26:53.775Z,3.10
2022-12-03T10:29:21.344Z,3.16
2022-12-03T10:31:54.650Z,3.19
2022-12-03T10:34:24.200Z,3.20
2022-12-03T10:37:08.218Z,3.23
2022-12-03T10:39:55.735Z,3.25
2022-12-03T10:42:23.455Z,3.26
2022-12-03T10:44:53.765Z,3.24
2022-12-03T10:47:22.553Z,3.24
2022-12-03T10:50:01.258Z,3.27
2022-12-03T10:52:29.443Z,3.29
2022-12-03T10:54:56.401Z,3.35
2022-12-03T10:57:23.300Z,3.38
2022-12-03T10:59:49.853Z,3.38
2022-12-03T11:02:19.996Z,3.42
2022-12-03T11:04:46.587Z,3.43
2022-12-03T11:07:15.020Z,3.43
2022-12-03T11:09:44.535Z,3.40
2022-12-03T11:12:17.821Z,3.39
2022-12-03T11:15:06.695Z,3.39
2022-12-03T11:17:47.054Z,3.39
2022-12-03T11:20:28.383Z,3.37
2022-12-03T11:22:55.599Z,3.35
2022-12-03T11:25:45.635Z,3.28
2022-12-03T11:28:30.816Z,3.11
2022-12-03T11:30:58.564Z,3.06
2022-12-03T11:33:26.096Z,3.08
2022-12-03T11:36:08.026Z,3.12
2022-12-03T11:38:53.684Z,3.16
2022-12-03T11:41:23.649Z,3.19
2022-12-03T11:44:09.003Z,3.22
2022-12-03T11:46:40.610Z,3.18
2022-12-03T11:49:21.328Z,3.13
2022-12-03T11:51:48.200Z,3.08
2022-12-03T11:54:15.804Z,3.09
2022-12-03T11:56:45.885Z,3.10
2022-12-03T11:59:12.556Z,3.11
2022-12-03T12:01:39.713Z,3.12
2022-12-03T12:04:07.540Z,3.13
2022-12-03T12:06:39.769Z,3.16
2022-12-03T12:09:06.266Z,3.18
2022-12-03T12:11:33.653Z,3.23
2022-12-03T12:14:01.775Z,3.24
2022-12-03T12:16:39.251Z,3.19
2022-12-03T12:19:20.652Z,3.12
2022-12-03T12:21:48.062Z,3.12
2022-12-03T12:24:43.044Z,3.09
2022-12-03T12:27:10.241Z,3.09
2022-12-03T12:29:38.984Z,3.13
2022-12-03T12:32:14.949Z,3.17
2022-12-03T12:34:42.400Z,3.18
2022-12-03T12:37:10.389Z,3.21
2022-12-03T12:39:36.964Z,3.22
2022-12-03T12:42:06.407Z,3.23
2022-12-03T12:44:32.910Z,3.20
2022-12-03T12:47:02.233Z,3.16
2022-12-03T12:49:29.504Z,3.15
2022-12-03T12:51:56.019Z,3.17
2022-12-03T12:54:22.582Z,3.18
2022-12-03T12:56:50.186Z,3.18
2022-12-03T12:59:18.001Z,3.20
2022-12-03T13:01:45.620Z,3.20
2022-12-03T13:04:14.733Z,3.23
2022-12-03T13:06:41.740Z,3.27
2022-12-03T13:09:12.473Z,3.32
2022-12-03T13:11:42.006Z,3.36
2022-12-03T13:14:12.396Z,3.36
2022-12-03T13:16:39.106Z,3.34
2022-12-03T13:19:13.258Z,3.26
2022-12-03T13:21:42.616Z,3.17
2022-12-03T13:24:26.090Z,3.10
2022-12-03T13:26:52.677Z,3.06
2022-12-03T13:29:20.369Z,3.02
2022-12-03T13:31:48.749Z,2.98
2022-12-03T13:34:16.719Z,2.95
2022-12-03T13:36:45.652Z,2.93
2022-12-03T13:39:19.141Z,2.90
2022-12-03T13:42:04.839Z,2.87
2022-12-03T13:44:32.159Z,2.87
2022-12-03T13:47:00.533Z,2.86
2022-12-03T13:49:27.018Z,2.89
2022-12-03T13:51:54.834Z,2.92
2022-12-03T13:54:22.812Z,2.97
2022-12-03T13:56:49.586Z,3.04
2022-12-03T13:59:19.337Z,3.09
2022-12-03T14:01:48.339Z,3.11
2022-12-03T14:04:14.958Z,3.12
2022-12-03T14:06:41.447Z,3.12
2022-12-03T14:09:09.303Z,3.12
2022-12-03T14:11:54.648Z,3.13
2022-12-03T14:14:21.158Z,3.16
2022-12-03T14:16:47.785Z,3.20
2022-12-03T14:19:14.419Z,3.22
2022-12-03T14:21:41.122Z,3.25
2022-12-03T14:24:09.032Z,3.23
2022-12-03T14:26:35.489Z,3.20
2022-12-03T14:29:07.209Z,3.21
2022-12-03T14:31:35.473Z,3.26
2022-12-03T14:34:02.262Z,3.30
2022-12-03T14:36:28.750Z,3.29
2022-12-03T14:38:55.675Z,3.23
2022-12-03T14:41:42.079Z,3.18
2022-12-03T14:44:08.580Z,3.14
2022-12-03T14:46:35.078Z,3.12
2022-12-03T14:49:01.543Z,3.11
2022-12-03T14:51:28.096Z,3.11
2022-12-03T14:53:54.612Z,3.11
2022-12-03T14:56:21.072Z,3.12
2022-12-03T14:58:49.174Z,3.11
2022-12-03T15:01:15.718Z,3.05
2022-12-03T15:03:42.310Z,3.03
2022-12-03T15:06:08.794Z,3.05
2022-12-03T15:08:35.333Z,3.04
2022-12-03T15:11:01.963Z,3.06
2022-12-03T15:13:28.516Z,3.07
2022-12-03T15:15:56.369Z,3.07
2022-12-03T15:18:22.937Z,3.08
2022-12-03T15:20:49.712Z,3.05
2022-12-03T15:23:16.202Z,3.02
2022-12-03T15:25:42.747Z,3.00
2022-12-03T15:28:09.739Z,2.96
2022-12-03T15:30:36.188Z,2.93
2022-12-03T15:33:04.297Z,2.95
2022-12-03T15:35:30.796Z,2.98
2022-12-03T15:37:57.450Z,2.98
2022-12-03T15:40:24.080Z,3.03
2022-12-03T15:42:50.721Z,3.07
2022-12-03T15:45:17.619Z,3.08
2022-12-03T15:47:44.547Z,3.10
2022-12-03T15:50:14.095Z,3.09
2022-12-03T15:52:40.585Z,3.09
2022-12-03T15:55:07.580Z,3.10
2022-12-03T15:57:34.051Z,3.12
2022-12-03T16:00:00.699Z,3.12
2022-12-03T16:02:33.597Z,3.15
2022-12-03T16:05:00.422Z,3.16
2022-12-03T16:07:28.717Z,3.15
2022-12-03T16:09:56.174Z,3.15
2022-12-03T16:12:23.211Z,3.13
2022-12-03T16:14:49.822Z,3.14
2022-12-03T16:17:16.671Z,3.14
2022-12-03T16:19:43.243Z,3.12
2022-12-03T16:22:09.935Z,3.12
2022-12-03T16:24:46.118Z,3.12
2022-12-03T16:27:14.940Z,3.11
